Time;durP1;ratioP1;P1;durP2;ratioP2;P2;SDS_P1;SDS_P2;PMS_P1;PMS_P2;Temp;Humidity;BMP_temperature;BMP_pressure;BME280_temperature;BME280_humidity;BME280_pressure;Samples;Min_cycle;Max_cycle;Signal;HPM_P1;HPM_P2
2024/01/23 00:02:09;;;;;;;15.80;11.50;;;;;;;19.57;26.67;102308.30;103543;1282;62140;-79
2024/01/23 00:04:35;;;;;;;16.10;11.60;;;;;;;19.56;26.51;102306.72;103574;1283;62293;-79
2024/01/23 00:07:00;;;;;;;17.20;11.70;;;;;;;19.57;26.65;102309.54;103785;1286;62187;-79
2024/01/23 00:09:27;;;;;;;15.80;11.30;;;;;;;19.57;26.50;102307.73;103859;1283;62468;-79
2024/01/23 00:11:54;;;;;;;16.80;11.30;;;;;;;19.57;26.60;102309.73;103590;1287;63416;-79
2024/01/23 00:14:19;;;;;;;15.60;11.50;;;;;;;19.57;26.68;102313.47;103607;1283;62215;-78
2024/01/23 00:16:45;;;;;;;16.30;11.30;;;;;;;19.58;26.49;102313.43;103677;1282;62963;-79
2024/01/23 00:19:11;;;;;;;15.40;11.60;;;;;;;19.58;26.46;102314.34;103683;1285;62302;-80
2024/01/23 00:21:37;;;;;;;14.50;11.20;;;;;;;19.58;26.52;102313.61;103674;1282;62172;-80
2024/01/23 00:24:03;;;;;;;15.90;11.40;;;;;;;19.57;26.62;102312.92;103649;1282;62986;-79
2024/01/23 00:26:29;;;;;;;16.90;11.80;;;;;;;19.58;26.57;102310.73;103547;1283;62188;-79
2024/01/23 00:28:55;;;;;;;16.40;11.80;;;;;;;19.59;26.47;102304.45;103659;1282;62191;-79
2024/01/23 00:31:20;;;;;;;15.50;11.10;;;;;;;19.59;26.53;102305.90;103820;1285;73407;-78
2024/01/23 00:33:46;;;;;;;14.60;10.90;;;;;;;19.59;26.49;102299.10;103603;1283;62234;-79
2024/01/23 00:36:12;;;;;;;14.60;11.20;;;;;;;19.59;26.60;102294.27;103597;1283;62472;-79
2024/01/23 00:38:38;;;;;;;18.50;11.80;;;;;;;19.59;26.44;102291.96;103723;1283;62229;-79
2024/01/23 00:41:03;;;;;;;15.50;11.60;;;;;;;19.59;26.50;102287.30;103717;1285;62254;-79
2024/01/23 00:43:30;;;;;;;14.90;11.00;;;;;;;19.59;26.62;102281.58;103864;1285;62299;-79
2024/01/23 00:45:55;;;;;;;16.10;11.50;;;;;;;19.59;26.39;102282.29;103749;1283;75169;-78
2024/01/23 00:48:21;;;;;;;17.80;11.00;;;;;;;19.59;26.39;102280.86;103575;1288;63478;-79
2024/01/23 00:50:47;;;;;;;15.40;11.20;;;;;;;19.60;26.38;102274.42;103724;1283;63390;-79
2024/01/23 00:53:13;;;;;;;14.90;11.00;;;;;;;19.60;26.37;102276.20;103696;1283;62278;-80
2024/01/23 00:55:39;;;;;;;15.10;11.10;;;;;;;19.60;26.47;102271.02;103837;1283;62177;-80
2024/01/23 00:58:05;;;;;;;15.90;11.00;;;;;;;19.61;26.53;102267.43;103721;1285;62088;-79
2024/01/23 01:00:30;;;;;;;17.70;12.40;;;;;;;19.61;26.53;102269.75;103678;1283;62887;-80
2024/01/23 01:02:56;;;;;;;16.30;11.70;;;;;;;19.61;26.43;102266.36;103655;1283;62171;-78
2024/01/23 01:05:22;;;;;;;15.70;11.30;;;;;;;19.61;26.40;102261.33;103809;1285;62123;-79
2024/01/23 01:07:48;;;;;;;17.60;12.30;;;;;;;19.61;26.38;102258.29;103611;1283;62161;-79
2024/01/23 01:10:14;;;;;;;16.70;11.60;;;;;;;19.61;26.48;102257.41;103710;1283;62187;-79
2024/01/23 01:12:39;;;;;;;17.40;12.00;;;;;;;19.61;26.43;102253.65;103824;1283;62158;-81
2024/01/23 01:15:08;;;;;;;16.70;11.90;;;;;;;19.61;26.38;102251.52;103729;1283;62913;-79
2024/01/23 01:17:34;;;;;;;16.90;12.30;;;;;;;19.61;26.42;102249.02;103705;1282;72507;-79
2024/01/23 01:20:00;;;;;;;16.10;11.60;;;;;;;19.61;26.34;102242.76;103706;1283;62772;-79
2024/01/23 01:22:25;;;;;;;16.70;11.70;;;;;;;19.61;26.24;102237.40;103732;1283;62655;-79
2024/01/23 01:24:51;;;;;;;16.70;11.70;;;;;;;19.61;26.30;102234.20;103943;1283;62123;-80
2024/01/23 01:27:17;;;;;;;19.60;13.00;;;;;;;19.61;26.33;102234.02;103709;1283;62539;-80
2024/01/23 01:29:42;;;;;;;16.00;12.30;;;;;;;19.62;26.40;102228.47;103801;1285;63441;-79
2024/01/23 01:32:08;;;;;;;16.00;12.00;;;;;;;19.62;26.32;102230.76;103714;1285;75189;-78
2024/01/23 01:34:34;;;;;;;17.10;12.30;;;;;;;19.62;26.26;102235.95;103954;1283;62183;-79
2024/01/23 01:37:00;;;;;;;17.30;12.80;;;;;;;19.62;26.26;102233.08;103420;1283;63335;-81
2024/01/23 01:39:26;;;;;;;17.30;12.10;;;;;;;19.62;26.30;102228.80;103614;1285;62680;-79
2024/01/23 01:41:53;;;;;;;16.50;11.60;;;;;;;19.62;26.29;102225.95;103807;1283;62207;-79
2024/01/23 01:44:18;;;;;;;18.60;13.00;;;;;;;19.62;26.40;102227.01;103554;1283;62076;-79
2024/01/23 01:46:45;;;;;;;18.60;12.50;;;;;;;19.62;26.36;102224.14;103524;1283;62199;-79
2024/01/23 01:49:11;;;;;;;17.70;12.50;;;;;;;19.63;26.28;102217.70;103497;1285;63420;-79
2024/01/23 01:51:37;;;;;;;17.80;12.10;;;;;;;19.63;26.30;102216.81;104000;1282;62139;-79
2024/01/23 01:54:04;;;;;;;19.60;12.80;;;;;;;19.62;26.31;102213.95;103597;1283;62126;-80
2024/01/23 01:56:30;;;;;;;17.90;12.70;;;;;;;19.62;26.33;102213.43;103582;1283;62248;-78
2024/01/23 01:58:57;;;;;;;18.00;13.20;;;;;;;19.63;26.21;102211.26;103545;1282;62316;-79
2024/01/23 02:01:23;;;;;;;19.30;12.70;;;;;;;19.63;26.39;102211.63;103606;1283;73041;-80
2024/01/23 02:03:49;;;;;;;17.00;12.40;;;;;;;19.63;26.25;102212.51;103724;1283;62346;-78
2024/01/23 02:06:14;;;;;;;16.70;12.30;;;;;;;19.63;26.30;102208.58;103553;1283;62105;-80
2024/01/23 02:08:41;;;;;;;18.00;12.10;;;;;;;19.63;26.24;102206.77;103756;1283;62338;-79
2024/01/23 02:11:06;;;;;;;17.20;12.30;;;;;;;19.63;26.33;102206.95;103811;1283;62936;-79
2024/01/23 02:13:32;;;;;;;18.60;12.20;;;;;;;19.64;26.26;102202.84;103761;1283;62246;-78
2024/01/23 02:15:58;;;;;;;18.30;12.60;;;;;;;19.64;26.32;102195.70;103615;1288;62207;-79
2024/01/23 02:18:24;;;;;;;18.50;12.70;;;;;;;19.64;26.26;102189.43;103575;1288;62158;-79
2024/01/23 02:20:50;;;;;;;15.70;12.30;;;;;;;19.64;26.23;102182.11;103727;1283;63700;-79
2024/01/23 02:23:15;;;;;;;18.20;13.20;;;;;;;19.64;26.22;102177.83;103777;1285;62195;-79
2024/01/23 02:25:42;;;;;;;16.50;12.80;;;;;;;19.64;26.17;102175.66;103604;1286;63390;-79
2024/01/23 02:28:08;;;;;;;18.10;12.60;;;;;;;19.64;26.15;102170.13;103582;1283;62345;-79
2024/01/23 02:30:35;;;;;;;19.40;13.00;;;;;;;19.64;26.23;102166.23;103401;1283;62129;-79
2024/01/23 02:33:04;;;;;;;18.00;12.00;;;;;;;19.64;26.08;102159.59;103683;1283;62271;-78
2024/01/23 02:35:31;;;;;;;17.50;12.80;;;;;;;19.64;26.16;102155.85;103725;1282;75169;-78
2024/01/23 02:37:57;;;;;;;16.20;12.30;;;;;;;19.64;26.05;102153.16;103871;1282;62203;-79
2024/01/23 02:40:23;;;;;;;18.30;12.90;;;;;;;19.64;26.11;102152.62;103602;1283;62224;-80
2024/01/23 02:42:49;;;;;;;17.40;12.50;;;;;;;19.64;26.15;102151.55;103562;1283;62348;-79
2024/01/23 02:45:15;;;;;;;17.60;12.50;;;;;;;19.64;26.17;102147.27;103547;1287;62271;-79
2024/01/23 02:47:40;;;;;;;18.00;12.40;;;;;;;19.64;26.16;102139.25;104117;1283;62673;-80
2024/01/23 02:50:07;;;;;;;17.50;12.60;;;;;;;19.65;26.08;102134.56;103576;1286;62143;-80
2024/01/23 02:52:33;;;;;;;16.80;12.20;;;;;;;19.65;26.21;102127.25;103651;1283;62063;-79
2024/01/23 02:54:59;;;;;;;19.30;13.20;;;;;;;19.65;26.14;102134.02;103819;1283;62250;-79
2024/01/23 02:57:25;;;;;;;17.40;12.90;;;;;;;19.65;26.05;102124.92;103807;1283;62158;-78
2024/01/23 02:59:54;;;;;;;18.20;12.90;;;;;;;19.65;26.00;102118.46;103763;1283;62193;-80
2024/01/23 03:02:20;;;;;;;19.10;12.90;;;;;;;19.65;26.01;102113.46;103746;1283;62072;-78
2024/01/23 03:04:47;;;;;;;17.10;12.00;;;;;;;19.64;26.03;102115.48;103961;1286;73645;-79
2024/01/23 03:07:13;;;;;;;17.30;12.40;;;;;;;19.65;25.97;102116.51;103635;1283;63376;-81
2024/01/23 03:09:39;;;;;;;16.30;11.60;;;;;;;19.64;26.01;102108.33;103393;1286;62248;-80
2024/01/23 03:12:17;;;;;;;18.40;13.10;;;;;;;19.65;26.16;102104.00;103755;1285;62108;-79
2024/01/23 03:14:44;;;;;;;19.30;13.70;;;;;;;19.66;25.99;102103.45;103541;1287;73446;-79
2024/01/23 03:17:10;;;;;;;17.90;13.10;;;;;;;19.65;26.01;102101.50;103423;1287;75427;-80
2024/01/23 03:19:36;;;;;;;18.80;13.10;;;;;;;19.65;25.89;102092.56;103464;1283;62216;-79
2024/01/23 03:22:03;;;;;;;19.40;13.70;;;;;;;19.65;25.90;102093.84;103817;1283;62267;-79
2024/01/23 03:24:29;;;;;;;19.30;13.90;;;;;;;19.65;26.07;102090.77;103728;1283;62108;-79
2024/01/23 03:26:55;;;;;;;21.70;13.80;;;;;;;19.65;26.01;102087.93;103699;1285;62202;-79
2024/01/23 03:29:21;;;;;;;18.60;13.30;;;;;;;19.65;25.84;102088.99;103791;1285;62203;-79
2024/01/23 03:31:46;;;;;;;18.70;13.10;;;;;;;19.65;26.05;102091.14;103656;1283;62991;-80
2024/01/23 03:34:12;;;;;;;17.10;13.00;;;;;;;19.65;25.95;102084.88;103272;1285;62435;-79
2024/01/23 03:36:38;;;;;;;18.40;13.20;;;;;;;19.66;25.96;102083.61;103173;1291;62476;-79
2024/01/23 03:39:03;;;;;;;19.90;14.00;;;;;;;19.65;25.89;102090.05;103104;1285;62275;-80
2024/01/23 03:41:30;;;;;;;19.30;13.80;;;;;;;19.66;25.96;102093.42;103695;1286;62865;-78
2024/01/23 03:43:56;;;;;;;20.20;13.40;;;;;;;19.66;25.93;102086.83;103166;1285;62148;-79
2024/01/23 03:46:22;;;;;;;19.80;13.70;;;;;;;19.66;25.96;102086.98;103139;1292;62653;-79
2024/01/23 03:48:47;;;;;;;19.50;13.80;;;;;;;19.67;25.86;102085.17;103230;1285;63481;-79
2024/01/23 03:51:13;;;;;;;19.80;12.80;;;;;;;19.66;25.85;102078.06;103087;1285;62298;-80
2024/01/23 03:53:39;;;;;;;22.80;14.70;;;;;;;19.66;25.90;102072.35;103213;1290;62636;-79
2024/01/23 03:56:05;;;;;;;21.00;14.10;;;;;;;19.66;25.89;102070.20;103185;1285;62206;-79
2024/01/23 03:58:30;;;;;;;19.70;13.40;;;;;;;19.67;25.90;102072.69;103324;1291;62352;-79
2024/01/23 04:00:59;;;;;;;21.10;14.00;;;;;;;19.66;25.88;102073.42;103206;1285;62294;-79
2024/01/23 04:03:25;;;;;;;18.80;13.30;;;;;;;19.66;25.89;102067.34;103294;1286;62200;-78
2024/01/23 04:05:51;;;;;;;18.70;13.10;;;;;;;19.67;25.81;102065.17;103373;1286;62545;-79
2024/01/23 04:08:17;;;;;;;19.60;13.90;;;;;;;19.67;25.85;102065.69;103487;1282;62188;-79
2024/01/23 04:10:42;;;;;;;19.20;13.60;;;;;;;19.66;25.92;102059.29;103662;1283;62219;-79
2024/01/23 04:13:08;;;;;;;20.20;14.10;;;;;;;19.67;25.88;102056.80;103756;1283;62155;-79
2024/01/23 04:15:34;;;;;;;19.80;14.10;;;;;;;19.67;25.79;102055.16;104016;1283;62218;-79
2024/01/23 04:18:00;;;;;;;19.50;13.80;;;;;;;19.68;25.80;102055.13;103616;1285;62110;-79
2024/01/23 04:20:26;;;;;;;19.50;13.80;;;;;;;19.67;25.94;102047.82;103573;1283;62238;-79
2024/01/23 04:22:53;;;;;;;21.20;14.10;;;;;;;19.67;25.77;102046.41;103674;1285;62870;-80
2024/01/23 04:25:18;;;;;;;20.40;14.10;;;;;;;19.68;25.92;102049.41;103731;1283;62254;-79
2024/01/23 04:27:44;;;;;;;23.40;14.00;;;;;;;19.68;25.82;102050.66;103649;1284;62126;-80
2024/01/23 04:30:10;;;;;;;19.80;13.70;;;;;;;19.67;25.84;102043.17;103610;1283;62193;-79
2024/01/23 04:32:36;;;;;;;20.80;13.60;;;;;;;19.67;25.79;102033.34;103926;1283;62162;-76
2024/01/23 04:35:02;;;;;;;19.30;14.20;;;;;;;19.68;25.73;102033.15;103562;1287;62127;-80
2024/01/23 04:37:28;;;;;;;21.00;14.00;;;;;;;19.68;25.87;102037.09;103790;1281;62184;-79
2024/01/23 04:39:54;;;;;;;20.00;13.90;;;;;;;19.68;25.69;102041.55;103616;1283;62524;-80
2024/01/23 04:42:21;;;;;;;21.20;15.10;;;;;;;19.68;25.73;102042.79;103964;1287;62181;-79
2024/01/23 04:44:47;;;;;;;22.40;15.10;;;;;;;19.68;25.75;102039.04;103659;1283;62130;-81
2024/01/23 04:47:12;;;;;;;22.20;15.50;;;;;;;19.67;25.53;102038.18;103581;1288;62264;-80
2024/01/23 04:49:38;;;;;;;24.50;16.80;;;;;;;19.66;25.42;102036.82;103560;1281;62270;-79
2024/01/23 04:52:04;;;;;;;27.00;17.10;;;;;;;19.63;25.44;102029.61;103827;1283;62101;-79
2024/01/23 04:54:30;;;;;;;24.50;17.20;;;;;;;19.62;25.25;102037.88;103198;1285;62281;-80
2024/01/23 04:56:56;;;;;;;25.20;16.70;;;;;;;19.61;25.25;102033.83;103146;1291;74517;-79
2024/01/23 04:59:21;;;;;;;23.60;15.90;;;;;;;19.61;25.09;102038.10;103299;1285;62192;-79
2024/01/23 05:01:47;;;;;;;19.90;14.90;;;;;;;19.61;25.12;102031.85;103223;1291;62289;-78
2024/01/23 05:04:13;;;;;;;22.30;15.30;;;;;;;19.61;25.12;102032.02;103098;1285;62173;-79
2024/01/23 05:06:38;;;;;;;21.50;15.00;;;;;;;19.62;24.96;102034.52;103130;1287;63233;-80
2024/01/23 05:09:04;;;;;;;21.20;15.00;;;;;;;19.61;25.01;102029.16;103442;1286;62362;-78
2024/01/23 05:11:30;;;;;;;22.10;14.80;;;;;;;19.62;25.03;102028.08;103400;1288;62983;-79
2024/01/23 05:13:55;;;;;;;21.90;15.60;;;;;;;19.62;24.90;102031.48;103566;1289;62228;-80
2024/01/23 05:16:21;;;;;;;20.80;14.60;;;;;;;19.62;24.91;102031.10;103821;1294;62199;-79
2024/01/23 05:18:47;;;;;;;18.80;13.70;;;;;;;19.63;25.05;102031.95;103836;1286;62236;-77
2024/01/23 05:21:14;;;;;;;20.10;14.20;;;;;;;19.63;25.13;102030.15;103857;1285;62101;-78
2024/01/23 05:23:41;;;;;;;20.60;14.10;;;;;;;19.64;25.03;102034.39;103781;1285;62256;-78
2024/01/23 05:26:07;;;;;;;22.10;14.70;;;;;;;19.65;25.08;102033.30;103833;1282;62183;-78
2024/01/23 05:28:33;;;;;;;20.40;14.10;;;;;;;19.64;25.05;102030.46;103536;1289;62255;-80
2024/01/23 05:30:59;;;;;;;20.40;14.20;;;;;;;19.65;24.94;102031.34;103753;1283;62180;-81
2024/01/23 05:33:25;;;;;;;22.60;15.50;;;;;;;19.64;25.03;102025.30;104052;1281;62113;-78
2024/01/23 05:35:50;;;;;;;27.30;15.70;;;;;;;19.62;24.92;102020.20;104120;1285;62161;-79
2024/01/23 05:38:16;;;;;;;25.20;17.30;;;;;;;19.61;24.80;102024.17;103927;1282;62181;-78
2024/01/23 05:40:42;;;;;;;23.80;16.00;;;;;;;19.57;24.65;102024.52;103609;1288;62194;-80
2024/01/23 05:43:07;;;;;;;24.40;16.30;;;;;;;19.52;24.64;102019.61;103877;1285;62241;-80
2024/01/23 05:45:33;;;;;;;22.50;16.00;;;;;;;19.44;24.72;102012.61;104010;1283;62190;-84
2024/01/23 05:47:59;;;;;;;22.70;15.90;;;;;;;19.36;24.56;102012.41;104300;1283;62268;-80
2024/01/23 05:50:25;;;;;;;20.90;15.60;;;;;;;19.28;24.61;102008.16;103688;1283;62180;-80
2024/01/23 05:52:51;;;;;;;23.70;16.70;;;;;;;19.19;24.57;102012.48;104217;1282;62194;-79
2024/01/23 05:55:16;;;;;;;24.40;16.80;;;;;;;19.10;24.52;102010.36;104432;1284;62254;-80
2024/01/23 05:57:42;;;;;;;23.40;16.00;;;;;;;19.02;24.56;102008.77;104335;1286;62193;-79
2024/01/23 06:00:13;;;;;;;22.20;16.50;;;;;;;18.94;24.58;102013.74;104463;1286;62091;-80
2024/01/23 06:02:38;;;;;;;23.40;16.80;;;;;;;18.87;24.65;102009.91;104418;1285;76336;-78
2024/01/23 06:05:05;;;;;;;25.10;16.40;;;;;;;18.82;24.43;102018.86;104499;1288;62342;-79
2024/01/23 06:07:30;;;;;;;22.30;16.00;;;;;;;18.77;24.60;102023.34;104525;1285;62243;-80
2024/01/23 06:09:56;;;;;;;21.90;15.40;;;;;;;18.72;24.40;102017.83;104468;1285;61402;-78
2024/01/23 06:12:22;;;;;;;23.90;16.60;;;;;;;18.69;24.50;102014.92;104500;1286;62186;-80
2024/01/23 06:14:48;;;;;;;23.70;16.20;;;;;;;18.69;24.45;102011.74;104803;1285;62441;-78
2024/01/23 06:17:14;;;;;;;20.20;15.30;;;;;;;18.69;24.58;102012.60;104151;1286;60469;-79
2024/01/23 06:19:39;;;;;;;26.30;17.20;;;;;;;18.71;24.51;102021.10;104562;1285;61815;-79
2024/01/23 06:22:05;;;;;;;23.30;15.70;;;;;;;18.72;24.44;102019.10;104519;1291;60549;-78
2024/01/23 06:24:31;;;;;;;23.50;16.40;;;;;;;18.74;24.49;102017.05;104433;1285;62478;-80
2024/01/23 06:26:57;;;;;;;23.40;16.10;;;;;;;18.76;24.35;102015.34;104613;1286;62123;-80
2024/01/23 06:29:22;;;;;;;24.60;16.60;;;;;;;18.79;24.38;102021.30;104495;1288;64039;-81
2024/01/23 06:31:48;;;;;;;22.80;16.30;;;;;;;18.81;24.21;102024.95;104612;1283;62139;-79
2024/01/23 06:34:15;;;;;;;24.30;16.20;;;;;;;18.83;24.09;102019.35;105328;1285;73452;-80
2024/01/23 06:36:45;;;;;;;25.40;16.10;;;;;;;18.85;23.97;102024.45;105364;1283;62101;-79
2024/01/23 06:39:10;;;;;;;22.10;16.00;;;;;;;18.86;23.83;102027.41;105307;1283;62085;-80
2024/01/23 06:41:36;;;;;;;23.80;15.90;;;;;;;18.89;23.90;102030.89;105459;1283;62190;-80
2024/01/23 06:44:02;;;;;;;23.90;16.60;;;;;;;18.91;23.74;102026.51;105200;1283;62196;-80
2024/01/23 06:46:27;;;;;;;23.40;16.60;;;;;;;18.93;23.69;102026.27;105195;1283;62025;-81
2024/01/23 06:48:53;;;;;;;20.20;14.50;;;;;;;18.96;23.71;102027.58;105583;1283;60558;-81
2024/01/23 06:51:22;;;;;;;20.90;15.00;;;;;;;19.00;23.55;102029.39;105803;1283;60354;-79
2024/01/23 06:53:47;;;;;;;17.40;13.00;;;;;;;19.04;23.71;102027.59;105686;1283;62056;-79
2024/01/23 06:56:13;;;;;;;21.50;15.40;;;;;;;19.07;23.72;102028.33;105639;1287;60242;-79
2024/01/23 06:58:38;;;;;;;21.20;14.20;;;;;;;19.10;23.67;102029.31;105350;1285;62095;-79
2024/01/23 07:01:04;;;;;;;32.50;14.80;;;;;;;19.12;23.65;102034.02;105456;1282;62622;-80
2024/01/23 07:03:30;;;;;;;20.20;13.70;;;;;;;19.14;23.75;102025.38;105950;1285;60373;-81
2024/01/23 07:05:56;;;;;;;27.20;13.60;;;;;;;19.16;23.88;102018.52;105744;1285;62009;-84
2024/01/23 07:08:22;;;;;;;23.90;15.90;;;;;;;19.19;23.95;102013.02;105779;1285;62082;-81
2024/01/23 07:10:47;;;;;;;27.80;16.60;;;;;;;19.20;23.89;102011.20;105676;1283;63355;-81
2024/01/23 07:13:14;;;;;;;26.80;16.10;;;;;;;19.19;23.89;102012.12;104859;1285;60589;-80
2024/01/23 07:15:39;;;;;;;25.70;16.30;;;;;;;19.17;24.16;102008.09;105040;1282;62442;-83
2024/01/23 07:18:05;;;;;;;29.20;17.50;;;;;;;19.16;24.28;102007.23;104929;1283;72251;-80
2024/01/23 07:20:31;;;;;;;25.50;17.10;;;;;;;19.16;24.73;102008.48;104614;1280;62322;-80
2024/01/23 07:22:56;;;;;;;27.10;17.00;;;;;;;19.17;24.81;102008.11;105258;1281;60836;-83
2024/01/23 07:25:33;;;;;;;23.20;16.30;;;;;;;19.22;25.17;102006.80;104653;1283;600312;-82
2024/01/23 07:27:59;;;;;;;24.60;16.20;;;;;;;19.20;25.42;102005.48;104893;1283;59358;-81
2024/01/23 07:30:25;;;;;;;25.60;15.30;;;;;;;19.20;25.54;102004.23;104765;1291;59394;-80
2024/01/23 07:32:50;;;;;;;30.90;15.40;;;;;;;19.21;25.72;102007.91;104620;1283;58973;-79
2024/01/23 07:35:16;;;;;;;34.00;15.40;;;;;;;19.23;25.68;102017.30;104550;1283;58719;-81
2024/01/23 07:37:42;;;;;;;30.60;15.10;;;;;;;19.25;25.85;102024.35;104583;1283;72264;-80
2024/01/23 07:40:08;;;;;;;31.70;14.50;;;;;;;19.28;25.97;102028.16;104117;1283;685226;-80
2024/01/23 07:42:33;;;;;;;41.40;14.80;;;;;;;19.29;25.97;102028.27;104808;1283;58827;-79
2024/01/23 07:44:59;;;;;;;31.30;14.50;;;;;;;19.32;26.01;102029.07;105017;1280;59371;-79
2024/01/23 07:47:25;;;;;;;25.00;14.00;;;;;;;19.33;26.07;102033.81;104944;1285;59397;-79
2024/01/23 07:49:50;;;;;;;30.40;14.20;;;;;;;19.35;26.15;102037.82;104882;1283;60362;-80
2024/01/23 07:52:19;;;;;;;26.40;14.90;;;;;;;19.37;26.21;102030.94;104790;1285;72935;-80
2024/01/23 07:54:45;;;;;;;30.90;17.30;;;;;;;19.38;26.27;102031.27;104578;1286;60119;-81
2024/01/23 07:57:10;;;;;;;33.30;17.10;;;;;;;19.35;26.29;102026.95;104540;1285;60934;-80
2024/01/23 07:59:37;;;;;;;27.20;15.50;;;;;;;19.33;26.32;102024.36;104475;1286;59734;-79
2024/01/23 08:02:03;;;;;;;30.30;14.80;;;;;;;19.33;26.69;102017.92;104928;1291;59646;-79
2024/01/23 08:04:29;;;;;;;26.00;14.50;;;;;;;19.35;26.82;102018.89;105168;1288;58035;-80
2024/01/23 08:06:55;;;;;;;23.80;14.50;;;;;;;19.39;27.02;102021.77;104771;1291;59701;-79
2024/01/23 08:09:20;;;;;;;31.20;13.60;;;;;;;19.41;27.03;102022.92;104622;1287;59397;-78
2024/01/23 08:11:46;;;;;;;21.20;13.70;;;;;;;19.44;27.02;102025.85;104887;1286;59723;-80
2024/01/23 08:14:13;;;;;;;23.10;13.90;;;;;;;19.46;27.09;102023.44;104912;1291;73759;-78
2024/01/23 08:16:42;;;;;;;22.40;14.00;;;;;;;19.48;27.09;102028.88;104740;1289;59784;-79
2024/01/23 08:19:08;;;;;;;21.20;12.80;;;;;;;19.50;27.08;102029.31;104605;1289;61258;-79
2024/01/23 08:21:34;;;;;;;22.20;12.80;;;;;;;19.52;27.09;102025.29;104449;1286;59851;-79
2024/01/23 08:24:00;;;;;;;20.70;12.80;;;;;;;19.55;27.09;102020.70;104657;1285;59876;-79
2024/01/23 08:26:25;;;;;;;23.90;12.90;;;;;;;19.57;26.94;102016.50;104752;1283;60197;-80
2024/01/23 08:28:51;;;;;;;23.70;13.80;;;;;;;19.58;27.05;102016.63;104697;1283;59650;-80
2024/01/23 08:31:17;;;;;;;26.00;13.20;;;;;;;19.59;27.25;102017.66;104929;1282;59751;-80
2024/01/23 08:33:43;;;;;;;27.40;13.40;;;;;;;19.60;27.23;102018.33;104896;1287;73365;-81
2024/01/23 08:36:09;;;;;;;32.40;12.70;;;;;;;19.60;27.23;102012.23;104882;1283;72852;-80
2024/01/23 08:38:36;;;;;;;18.90;12.40;;;;;;;19.62;27.24;102012.36;105153;1287;59797;-80
2024/01/23 08:41:02;;;;;;;20.70;13.00;;;;;;;19.63;27.33;102012.30;104954;1283;60199;-81
2024/01/23 08:43:30;;;;;;;22.00;12.00;;;;;;;19.64;27.27;102013.34;105037;1285;59317;-80
2024/01/23 08:45:56;;;;;;;21.70;12.50;;;;;;;19.65;27.34;102018.10;105108;1287;72684;-81
2024/01/23 08:48:24;;;;;;;20.30;12.60;;;;;;;19.65;27.35;102017.01;104738;1283;59808;-79
2024/01/23 08:50:51;;;;;;;27.10;12.30;;;;;;;19.66;27.33;102013.94;105083;1283;59892;-79
2024/01/23 08:53:17;;;;;;;23.70;12.00;;;;;;;19.67;27.35;102012.63;105128;1288;72478;-81
2024/01/23 08:55:44;;;;;;;20.10;12.60;;;;;;;19.68;27.54;102009.58;105195;1281;59912;-80
2024/01/23 08:58:10;;;;;;;27.10;12.80;;;;;;;19.68;27.53;102011.00;105232;1288;60672;-78
2024/01/23 09:00:35;;;;;;;23.10;11.90;;;;;;;19.69;27.72;102010.05;105047;1283;59304;-80
2024/01/23 09:03:01;;;;;;;27.50;12.40;;;;;;;19.71;28.15;102008.38;105151;1283;60333;-79
2024/01/23 09:05:27;;;;;;;34.40;12.50;;;;;;;19.71;28.15;102003.70;104228;1291;59762;-79
2024/01/23 09:07:53;;;;;;;24.70;12.60;;;;;;;19.72;28.66;101993.67;105063;1283;60010;-80
2024/01/23 09:10:18;;;;;;;26.90;12.90;;;;;;;19.73;28.69;101999.16;105171;1288;59640;-80
2024/01/23 09:12:44;;;;;;;28.40;12.70;;;;;;;19.73;28.68;101988.95;105110;1287;60028;-80
2024/01/23 09:15:10;;;;;;;24.80;13.20;;;;;;;19.74;28.62;101980.52;104792;1288;60471;-80
2024/01/23 09:17:36;;;;;;;25.90;13.40;;;;;;;19.75;28.69;101978.52;104550;1289;59775;-81
2024/01/23 09:20:03;;;;;;;23.40;12.50;;;;;;;19.75;28.85;101974.57;104682;1294;59379;-80
2024/01/23 09:22:29;;;;;;;20.30;11.70;;;;;;;19.76;28.64;101968.46;104239;1294;57990;-80
2024/01/23 09:24:55;;;;;;;24.80;12.70;;;;;;;19.77;28.65;101969.88;104330;1293;59201;-79
2024/01/23 09:27:20;;;;;;;20.60;12.70;;;;;;;19.77;28.80;101966.10;104346;1291;60890;-79
2024/01/23 09:29:46;;;;;;;26.00;13.10;;;;;;;19.78;28.67;101966.42;104716;1291;59787;-81
2024/01/23 09:32:12;;;;;;;26.60;13.40;;;;;;;19.79;28.62;101962.64;104593;1292;59533;-81
2024/01/23 09:34:38;;;;;;;26.30;13.60;;;;;;;19.79;28.42;101960.83;104764;1291;59935;-81
2024/01/23 09:37:03;;;;;;;23.80;13.50;;;;;;;19.80;28.43;101961.52;104672;1291;60190;-80
2024/01/23 09:39:29;;;;;;;24.10;13.40;;;;;;;19.81;28.54;101960.59;104720;1291;59987;-81
2024/01/23 09:41:59;;;;;;;21.20;12.80;;;;;;;19.81;28.44;101960.58;104326;1291;59389;-79
2024/01/23 09:44:24;;;;;;;;;;;;;;;19.82;28.42;101953.42;104330;1291;60421;-79
2024/01/23 09:46:50;;;;;;;22.00;12.90;;;;;;;19.78;28.54;101951.60;104723;1288;59791;-81
2024/01/23 09:49:16;;;;;;;20.50;13.00;;;;;;;19.79;28.22;101946.02;105175;1287;59400;-81
2024/01/23 09:51:42;;;;;;;32.30;14.90;;;;;;;19.76;28.33;101946.89;105128;1292;59715;-80
2024/01/23 09:54:09;;;;;;;34.00;17.30;;;;;;;19.71;28.46;101939.05;105160;1283;59728;-82
2024/01/23 09:56:36;;;;;;;31.30;17.60;;;;;;;19.63;28.36;101939.60;106608;1288;57546;-80
2024/01/23 09:59:03;;;;;;;34.50;18.70;;;;;;;19.53;28.31;101943.66;106543;1288;58228;-80
2024/01/23 10:01:29;;;;;;;24.30;15.10;;;;;;;19.41;28.39;101944.92;106028;1282;59282;-82
2024/01/23 10:03:57;;;;;;;29.60;15.90;;;;;;;19.32;28.41;101943.89;105511;1289;59436;-82
2024/01/23 10:06:24;;;;;;;26.20;17.20;;;;;;;19.16;28.34;101940.88;105747;1289;74184;-80
2024/01/23 10:08:50;;;;;;;29.70;15.40;;;;;;;18.72;28.06;101938.68;105654;1288;59675;-80
2024/01/23 10:11:16;;;;;;;29.60;15.70;;;;;;;18.63;28.49;101939.05;105611;1286;58943;-80
2024/01/23 10:13:42;;;;;;;25.20;15.80;;;;;;;18.63;28.86;101946.02;105668;1283;59444;-81
2024/01/23 10:16:09;;;;;;;21.40;15.10;;;;;;;18.63;28.76;101945.67;105437;1282;59787;-80
2024/01/23 10:18:35;;;;;;;20.60;13.50;;;;;;;18.62;28.65;101951.55;105580;1283;59698;-80
2024/01/23 10:21:01;;;;;;;22.90;14.20;;;;;;;18.63;28.99;101956.89;105546;1289;60143;-81
2024/01/23 10:23:27;;;;;;;20.90;14.50;;;;;;;18.65;29.32;101958.23;105861;1283;59713;-80
2024/01/23 10:25:58;;;;;;;25.80;13.90;;;;;;;18.65;29.56;101962.13;106536;1283;57633;-80
2024/01/23 10:28:23;;;;;;;21.20;12.70;;;;;;;18.67;29.88;101962.41;106547;1288;73684;-79
2024/01/23 10:30:49;;;;;;;21.70;13.60;;;;;;;18.68;29.93;101963.98;106483;1283;58127;-80
2024/01/23 10:33:15;;;;;;;24.90;13.50;;;;;;;18.69;29.96;101964.48;106305;1283;58460;-80
2024/01/23 10:35:48;;;;;;;25.20;12.70;;;;;;;18.67;30.06;101961.34;106523;1288;72269;-80
2024/01/23 10:38:14;;;;;;;20.90;12.60;;;;;;;18.66;29.77;101955.32;106228;1288;57650;-83
2024/01/23 10:40:40;;;;;;;20.00;12.60;;;;;;;18.66;29.67;101954.44;106428;1286;57673;-79
2024/01/23 10:43:06;;;;;;;21.30;12.30;;;;;;;18.68;29.52;101951.34;106286;1283;57845;-79
2024/01/23 10:45:32;;;;;;;20.50;12.60;;;;;;;18.69;29.35;101950.55;106523;1285;57572;-80
2024/01/23 10:48:00;;;;;;;25.10;12.00;;;;;;;18.73;29.28;101956.80;106324;1285;57941;-80
2024/01/23 10:50:29;;;;;;;23.80;12.20;;;;;;;18.78;29.34;101951.80;106391;1288;57333;-79
2024/01/23 10:52:54;;;;;;;24.00;12.20;;;;;;;18.83;29.38;101945.15;106514;1283;61545;-80
2024/01/23 10:55:21;;;;;;;21.20;12.00;;;;;;;18.88;29.26;101942.27;106578;1283;58298;-82
2024/01/23 10:57:48;;;;;;;18.70;11.20;;;;;;;18.93;29.28;101938.51;106516;1283;58117;-81